Oriana — ZCDU9 — position and weather

sailwx.info

Track history (hours):
 
Tides and Currents Weather Stations Pressure Air Temp Water Temp Dewpoint Dewpoint Depression Visibility Wind Speed Wind Dir Waves Ship Positions

Oriana (Bermuda)

Last reported at 2015-Mar-02 10:31 UTC. Time now 2015-Mar-02 11:08 UTC.
Position N 38°42' W 009°08'.

Length 261 m; beam 32.2 m; draft 8.2 m.

Type: Ship. MMSI: 310529000.

Date/timePositionNaut miles runAvg speedWind from/ knotsBaromVisibWave heightAir tempDewpointWater temp
2015-Mar-02 10:31N 38°42' W 009°08'0 0.0
2015-Mar-02 09:33N 38°42' W 009°08'1 0.8
2015-Mar-02 08:33N 38°42' W 009°08'2411.8
2015-Mar-02 06:32N 38°22' W 009°25'1717.0
2015-Mar-02 05:33N 38°05' W 009°23'1717.2
2015-Mar-02 04:33N 37°48' W 009°21'1717.0
2015-Mar-02 03:32N 37°31' W 009°23'2116.9
2015-Mar-02 02:18N 37°10' W 009°23'4514.5
2015-Mar-01 23:13N 36°42' W 008°39'2817.0
2015-Mar-01 21:33N 36°40' W 008°04'130 6.2
2015-Mar-01 00:33N 35°60' W 005°31'1313.4
2015-Feb-28 23:33N 36°04' W 005°16'7 0.3
2015-Feb-27 22:21N 36°07' W 005°07'911.8
2015-Feb-27 21:33N 36°05' W 005°19'5 4.4
2015-Feb-27 20:30N 36°09' W 005°22'0 0.0
2015-Feb-27 19:28N 36°09' W 005°22'0 0.0
2015-Feb-27 18:31N 36°09' W 005°22'0 0.0
2015-Feb-27 17:28N 36°09' W 005°22'0 0.0
2015-Feb-27 16:33N 36°09' W 005°22'0 0.0
2015-Feb-27 15:31N 36°09' W 005°22'0 0.0
2015-Feb-27 14:23N 36°09' W 005°22'0 0.0
2015-Feb-27 13:23N 36°09' W 005°22'0 0.0
2015-Feb-27 12:32N 36°09' W 005°22'0 0.0
2015-Feb-27 11:31N 36°09' W 005°22'1 1.4
2015-Feb-27 10:33N 36°08' W 005°22'1312.5
2015-Feb-27 09:33N 35°57' W 005°31'22315.4
2015-Feb-26 19:09N 37°27' W 009°45'1216.6
2015-Feb-26 18:25N 37°39' W 009°48'1516.6
2015-Feb-26 17:32N 37°53' W 009°52'  
2015-Feb-24 13:29N 50°26' W 001°23'1213.3
2015-Feb-24 12:33N 50°32' W 001°05'1111.3
2015-Feb-24 11:33N 50°42' W 000°58'1413.9
2015-Feb-24 10:34N 50°47' W 001°19'7 6.8
2015-Feb-24 09:31N 50°53' W 001°24'0 0.0
2015-Feb-24 07:03N 50°54' W 001°24'0 0.0
2015-Feb-24 06:21N 50°54' W 001°24'0 0.0
2015-Feb-24 05:21N 50°54' W 001°24'0 0.0
2015-Feb-24 03:33N 50°54' W 001°24'0 0.0
2015-Feb-24 02:24N 50°54' W 001°24'0 0.0
2015-Feb-24 01:18N 50°54' W 001°24'0 0.0
2015-Feb-24 00:03N 50°54' W 001°24'0 0.0
2015-Feb-23 23:12N 50°54' W 001°24'0 0.0
2015-Feb-23 22:33N 50°54' W 001°24'0 0.0
2015-Feb-23 21:30N 50°54' W 001°24'0 0.0
2015-Feb-23 20:09N 50°54' W 001°24'0 0.0
2015-Feb-23 19:27N 50°54' W 001°24'0 0.0
2015-Feb-23 18:09N 50°54' W 001°24'0 0.0
2015-Feb-23 17:24N 50°54' W 001°24'0 0.0
2015-Feb-23 16:33N 50°54' W 001°24'0 0.0
2015-Feb-23 15:21N 50°54' W 001°24'0 0.0
2015-Feb-23 14:03N 50°54' W 001°24'0 0.0
2015-Feb-23 13:27N 50°54' W 001°24'0 0.0
2015-Feb-23 12:27N 50°54' W 001°24'0 0.0
2015-Feb-23 11:21N 50°54' W 001°24'0 0.0
2015-Feb-23 10:27N 50°54' W 001°24'0 0.0
2015-Feb-23 09:27N 50°54' W 001°24'0 0.0
2015-Feb-23 08:33N 50°54' W 001°24'0 0.0
2015-Feb-23 07:15N 50°54' W 001°24'1 1.4
2015-Feb-23 06:33N 50°53' W 001°23'7 7.0
2015-Feb-23 05:33N 50°47' W 001°18'1312.7
2015-Feb-23 04:33N 50°43' W 000°59'9 9.0
2015-Feb-23 03:33N 50°34' W 001°01'1211.6
2015-Feb-23 02:32N 50°29' W 001°18'  
2015-Feb-20 11:31N 38°44' W 009°51'1717.4
2015-Feb-20 10:33N 38°28' W 009°47'  
Track history (hours):
 
Tides and Currents Weather Stations Pressure Air Temp Water Temp Dewpoint Dewpoint Depression Visibility Wind Speed Wind Dir Waves Ship Positions

Oriana (Bermuda)

Last reported at 2015-Mar-02 10:31 UTC. Time now 2015-Mar-02 11:08 UTC.
Position N 38°42' W 009°08'.

Length 261 m; beam 32.2 m; draft 8.2 m.

Type: Ship. MMSI: 310529000.

Date/timePositionNaut miles runAvg speedWind from/ knotsBaromVisibWave heightAir tempDewpointWater temp
2015-Mar-02 10:31N 38°42' W 009°08'0 0.0
2015-Mar-02 09:33N 38°42' W 009°08'1 0.8
2015-Mar-02 08:33N 38°42' W 009°08'2411.8
2015-Mar-02 06:32N 38°22' W 009°25'1717.0
2015-Mar-02 05:33N 38°05' W 009°23'1717.2
2015-Mar-02 04:33N 37°48' W 009°21'1717.0
2015-Mar-02 03:32N 37°31' W 009°23'2116.9
2015-Mar-02 02:18N 37°10' W 009°23'4514.5
2015-Mar-01 23:13N 36°42' W 008°39'2817.0
2015-Mar-01 21:33N 36°40' W 008°04'130 6.2
2015-Mar-01 00:33N 35°60' W 005°31'1313.4
2015-Feb-28 23:33N 36°04' W 005°16'7 0.3
2015-Feb-27 22:21N 36°07' W 005°07'911.8
2015-Feb-27 21:33N 36°05' W 005°19'5 4.4
2015-Feb-27 20:30N 36°09' W 005°22'0 0.0
2015-Feb-27 19:28N 36°09' W 005°22'0 0.0
2015-Feb-27 18:31N 36°09' W 005°22'0 0.0
2015-Feb-27 17:28N 36°09' W 005°22'0 0.0
2015-Feb-27 16:33N 36°09' W 005°22'0 0.0
2015-Feb-27 15:31N 36°09' W 005°22'0 0.0
2015-Feb-27 14:23N 36°09' W 005°22'0 0.0
2015-Feb-27 13:23N 36°09' W 005°22'0 0.0
2015-Feb-27 12:32N 36°09' W 005°22'0 0.0
2015-Feb-27 11:31N 36°09' W 005°22'1 1.4
2015-Feb-27 10:33N 36°08' W 005°22'1312.5
2015-Feb-27 09:33N 35°57' W 005°31'22315.4
2015-Feb-26 19:09N 37°27' W 009°45'1216.6
2015-Feb-26 18:25N 37°39' W 009°48'1516.6
2015-Feb-26 17:32N 37°53' W 009°52'  
2015-Feb-24 13:29N 50°26' W 001°23'1213.3
2015-Feb-24 12:33N 50°32' W 001°05'1111.3
2015-Feb-24 11:33N 50°42' W 000°58'1413.9
2015-Feb-24 10:34N 50°47' W 001°19'7 6.8
2015-Feb-24 09:31N 50°53' W 001°24'0 0.0
2015-Feb-24 07:03N 50°54' W 001°24'0 0.0
2015-Feb-24 06:21N 50°54' W 001°24'0 0.0
2015-Feb-24 05:21N 50°54' W 001°24'0 0.0
2015-Feb-24 03:33N 50°54' W 001°24'0 0.0
2015-Feb-24 02:24N 50°54' W 001°24'0 0.0
2015-Feb-24 01:18N 50°54' W 001°24'0 0.0
2015-Feb-24 00:03N 50°54' W 001°24'0 0.0
2015-Feb-23 23:12N 50°54' W 001°24'0 0.0
2015-Feb-23 22:33N 50°54' W 001°24'0 0.0
2015-Feb-23 21:30N 50°54' W 001°24'0 0.0
2015-Feb-23 20:09N 50°54' W 001°24'0 0.0
2015-Feb-23 19:27N 50°54' W 001°24'0 0.0
2015-Feb-23 18:09N 50°54' W 001°24'0 0.0
2015-Feb-23 17:24N 50°54' W 001°24'0 0.0
2015-Feb-23 16:33N 50°54' W 001°24'0 0.0
2015-Feb-23 15:21N 50°54' W 001°24'0 0.0
2015-Feb-23 14:03N 50°54' W 001°24'0 0.0
2015-Feb-23 13:27N 50°54' W 001°24'0 0.0
2015-Feb-23 12:27N 50°54' W 001°24'0 0.0
2015-Feb-23 11:21N 50°54' W 001°24'0 0.0
2015-Feb-23 10:27N 50°54' W 001°24'0 0.0
2015-Feb-23 09:27N 50°54' W 001°24'0 0.0
2015-Feb-23 08:33N 50°54' W 001°24'0 0.0
2015-Feb-23 07:15N 50°54' W 001°24'1 1.4
2015-Feb-23 06:33N 50°53' W 001°23'7 7.0
2015-Feb-23 05:33N 50°47' W 001°18'1312.7
2015-Feb-23 04:33N 50°43' W 000°59'9 9.0
2015-Feb-23 03:33N 50°34' W 001°01'1211.6
2015-Feb-23 02:32N 50°29' W 001°18'  
2015-Feb-20 11:31N 38°44' W 009°51'1717.4
2015-Feb-20 10:33N 38°28' W 009°47'  

Dump ship's entire track history